الصفحة الرئيسية
METAR-TAF:

METAR-TAF

مطار :

Olsztyn-Mazury

أولشتين, بولندا

دائرة عرض: 53-28-55N, خط طول: 20-56-16E, ارتفاع: 141 متر

مراقبة الطقس الحالي

تاريخ ووقت الإصدار 25 دقيقة قبل الساعة 02:00UTC
ريح 1 عقدة من الغرب/الجنوب الغربي
درجة الحرارة 15°درجة مئوية
الرطوبة 94%
ضغط 1020 hPa
الرؤية 10 كم أو أكثر
الغيوم لا تقل 1500 م ولا وجود لمزنة ركامية السحاب الأسود

METAR: EPSY 180200Z 25001KT CAVOK 15/14 Q1020

زمن: 04:25 (02:25 UTC)

توقعات

تاريخ ووقت الإصدار 2ساعات و 55 دقيقة قبل الساعة 23:30UTC
التوقعات صالحة من18 الساعة 00 UTC إلى 18 الساعة 09 UTC
ريح 5 عقدة من الغرب
الرؤية 10 كم أو أكثر
الغيوم لا تقل 1500 م ولا وجود لمزنة ركامية السحاب الأسود

TAF: EPSY 172330Z 1800/1809 27005KT CAVOK

أرصاد الطقس والتوقعات من أكثر من 4000 مطار (تقارير الطقس للمطار METAR والتنبؤ بالطقس بالمطارTAF).

المحطات المتاحة هي النقط الصفراء والحمراء على الخريطة.

حرك المؤشر فوق النقطة لمعرفة اسم المحطة.

ثم انقر لمعرفة أرصاد وتوقعات الطقس.

لتغيير الخارطة: اضغط على الأزرار الخضراء مع رمز الصليب الأسود للتكبير. على الزر الأخضر مع شرطة للتصغير، أو على الأسهم الخضراء للخرائط المجاورة.


METAR-TAF: